sensor_id;sensor_type;location;lat;lon;timestamp;P1;durP1;ratioP1;P2;durP2;ratioP2
13421;SDS011;6782;55.904;13.396;2022-10-03T00:00:01;2.60;;;1.20;;
13421;SDS011;6782;55.904;13.396;2022-10-03T00:02:37;2.43;;;1.50;;
13421;SDS011;6782;55.904;13.396;2022-10-03T00:05:13;2.00;;;1.70;;
13421;SDS011;6782;55.904;13.396;2022-10-03T00:07:52;2.93;;;1.53;;
13421;SDS011;6782;55.904;13.396;2022-10-03T00:10:23;1.87;;;1.63;;
13421;SDS011;6782;55.904;13.396;2022-10-03T00:13:00;4.10;;;1.67;;
13421;SDS011;6782;55.904;13.396;2022-10-03T00:15:32;2.13;;;1.70;;
13421;SDS011;6782;55.904;13.396;2022-10-03T00:18:05;3.83;;;1.83;;
13421;SDS011;6782;55.904;13.396;2022-10-03T00:20:40;1.60;;;1.50;;
13421;SDS011;6782;55.904;13.396;2022-10-03T00:23:12;2.43;;;1.90;;
13421;SDS011;6782;55.904;13.396;2022-10-03T00:25:42;3.33;;;1.60;;
13421;SDS011;6782;55.904;13.396;2022-10-03T00:28:16;4.70;;;1.83;;
13421;SDS011;6782;55.904;13.396;2022-10-03T00:30:50;5.00;;;1.70;;
13421;SDS011;6782;55.904;13.396;2022-10-03T00:33:23;4.23;;;1.70;;
13421;SDS011;6782;55.904;13.396;2022-10-03T00:35:57;3.33;;;1.73;;
13421;SDS011;6782;55.904;13.396;2022-10-03T00:41:21;2.20;;;2.00;;
13421;SDS011;6782;55.904;13.396;2022-10-03T00:43:57;3.07;;;1.50;;
13421;SDS011;6782;55.904;13.396;2022-10-03T00:52:20;2.43;;;1.83;;
13421;SDS011;6782;55.904;13.396;2022-10-03T00:54:53;2.30;;;1.63;;
13421;SDS011;6782;55.904;13.396;2022-10-03T00:57:31;2.17;;;1.97;;
13421;SDS011;6782;55.904;13.396;2022-10-03T01:00:12;2.83;;;1.90;;
13421;SDS011;6782;55.904;13.396;2022-10-03T01:02:43;3.17;;;1.97;;
13421;SDS011;6782;55.904;13.396;2022-10-03T01:05:15;2.10;;;1.80;;
13421;SDS011;6782;55.904;13.396;2022-10-03T01:10:40;1.73;;;1.63;;
13421;SDS011;6782;55.904;13.396;2022-10-03T01:13:13;1.93;;;1.83;;
13421;SDS011;6782;55.904;13.396;2022-10-03T01:15:45;2.43;;;1.97;;
13421;SDS011;6782;55.904;13.396;2022-10-03T01:18:21;3.17;;;1.80;;
13421;SDS011;6782;55.904;13.396;2022-10-03T01:20:56;2.23;;;1.80;;
13421;SDS011;6782;55.904;13.396;2022-10-03T01:26:17;2.80;;;1.97;;
13421;SDS011;6782;55.904;13.396;2022-10-03T01:28:50;4.93;;;2.00;;
13421;SDS011;6782;55.904;13.396;2022-10-03T01:31:37;1.97;;;1.83;;
13421;SDS011;6782;55.904;13.396;2022-10-03T01:34:07;2.10;;;1.90;;
13421;SDS011;6782;55.904;13.396;2022-10-03T01:36:38;3.40;;;1.90;;
13421;SDS011;6782;55.904;13.396;2022-10-03T01:39:08;2.00;;;1.80;;
13421;SDS011;6782;55.904;13.396;2022-10-03T01:41:41;4.20;;;1.80;;
13421;SDS011;6782;55.904;13.396;2022-10-03T01:44:17;4.03;;;1.97;;
13421;SDS011;6782;55.904;13.396;2022-10-03T01:46:49;4.73;;;1.80;;
13421;SDS011;6782;55.904;13.396;2022-10-03T01:49:21;3.57;;;1.67;;
13421;SDS011;6782;55.904;13.396;2022-10-03T01:51:51;3.10;;;1.90;;
13421;SDS011;6782;55.904;13.396;2022-10-03T01:54:26;4.03;;;1.93;;
13421;SDS011;6782;55.904;13.396;2022-10-03T01:56:56;2.93;;;1.80;;
13421;SDS011;6782;55.904;13.396;2022-10-03T01:59:31;2.20;;;1.90;;
13421;SDS011;6782;55.904;13.396;2022-10-03T02:02:00;2.37;;;1.90;;
13421;SDS011;6782;55.904;13.396;2022-10-03T02:04:38;2.50;;;1.87;;
13421;SDS011;6782;55.904;13.396;2022-10-03T02:07:11;2.23;;;1.73;;
13421;SDS011;6782;55.904;13.396;2022-10-03T02:09:47;2.60;;;1.80;;
13421;SDS011;6782;55.904;13.396;2022-10-03T02:12:22;3.13;;;1.90;;
13421;SDS011;6782;55.904;13.396;2022-10-03T02:14:56;4.40;;;2.20;;
13421;SDS011;6782;55.904;13.396;2022-10-03T02:17:26;3.00;;;2.00;;
13421;SDS011;6782;55.904;13.396;2022-10-03T02:19:56;4.03;;;2.37;;
13421;SDS011;6782;55.904;13.396;2022-10-03T02:22:30;3.60;;;2.23;;
13421;SDS011;6782;55.904;13.396;2022-10-03T02:30:33;5.10;;;3.00;;
13421;SDS011;6782;55.904;13.396;2022-10-03T02:33:14;3.43;;;2.70;;
13421;SDS011;6782;55.904;13.396;2022-10-03T02:36:00;4.50;;;2.70;;
13421;SDS011;6782;55.904;13.396;2022-10-03T02:38:44;3.93;;;2.40;;
13421;SDS011;6782;55.904;13.396;2022-10-03T02:47:03;5.47;;;3.00;;
13421;SDS011;6782;55.904;13.396;2022-10-03T02:49:38;4.70;;;3.10;;
13421;SDS011;6782;55.904;13.396;2022-10-03T02:52:19;4.60;;;2.90;;
13421;SDS011;6782;55.904;13.396;2022-10-03T02:54:54;3.53;;;2.93;;
13421;SDS011;6782;55.904;13.396;2022-10-03T02:57:32;4.40;;;2.60;;
13421;SDS011;6782;55.904;13.396;2022-10-03T03:00:04;5.63;;;2.93;;
13421;SDS011;6782;55.904;13.396;2022-10-03T03:05:23;4.63;;;2.80;;
13421;SDS011;6782;55.904;13.396;2022-10-03T03:08:02;3.00;;;2.80;;
13421;SDS011;6782;55.904;13.396;2022-10-03T03:10:51;4.87;;;2.70;;
13421;SDS011;6782;55.904;13.396;2022-10-03T03:13:30;3.87;;;3.00;;
13421;SDS011;6782;55.904;13.396;2022-10-03T03:16:21;3.57;;;2.80;;
13421;SDS011;6782;55.904;13.396;2022-10-03T03:18:52;3.87;;;3.10;;
13421;SDS011;6782;55.904;13.396;2022-10-03T03:21:31;3.43;;;3.10;;
13421;SDS011;6782;55.904;13.396;2022-10-03T03:24:15;6.10;;;3.47;;
13421;SDS011;6782;55.904;13.396;2022-10-03T03:26:57;3.80;;;2.80;;
13421;SDS011;6782;55.904;13.396;2022-10-03T03:29:29;4.43;;;3.20;;
13421;SDS011;6782;55.904;13.396;2022-10-03T03:31:59;6.27;;;3.10;;
13421;SDS011;6782;55.904;13.396;2022-10-03T03:34:29;3.43;;;2.97;;
13421;SDS011;6782;55.904;13.396;2022-10-03T03:37:03;5.20;;;3.33;;
13421;SDS011;6782;55.904;13.396;2022-10-03T03:39:45;3.83;;;3.40;;
13421;SDS011;6782;55.904;13.396;2022-10-03T03:42:25;3.17;;;2.87;;
13421;SDS011;6782;55.904;13.396;2022-10-03T03:45:07;5.10;;;3.00;;
13421;SDS011;6782;55.904;13.396;2022-10-03T03:47:46;5.07;;;3.10;;
13421;SDS011;6782;55.904;13.396;2022-10-03T03:50:22;5.17;;;3.20;;
13421;SDS011;6782;55.904;13.396;2022-10-03T03:52:58;4.17;;;3.37;;
13421;SDS011;6782;55.904;13.396;2022-10-03T03:55:34;4.33;;;3.37;;
13421;SDS011;6782;55.904;13.396;2022-10-03T03:58:08;3.93;;;3.53;;
13421;SDS011;6782;55.904;13.396;2022-10-03T04:00:47;5.13;;;3.40;;
13421;SDS011;6782;55.904;13.396;2022-10-03T04:03:29;5.30;;;2.90;;
13421;SDS011;6782;55.904;13.396;2022-10-03T04:06:03;3.60;;;3.30;;
13421;SDS011;6782;55.904;13.396;2022-10-03T04:08:39;4.07;;;3.23;;
13421;SDS011;6782;55.904;13.396;2022-10-03T04:11:28;4.87;;;3.03;;
13421;SDS011;6782;55.904;13.396;2022-10-03T04:14:28;4.70;;;3.40;;
13421;SDS011;6782;55.904;13.396;2022-10-03T04:17:27;3.90;;;3.17;;
13421;SDS011;6782;55.904;13.396;2022-10-03T04:20:42;4.57;;;3.10;;
13421;SDS011;6782;55.904;13.396;2022-10-03T04:23:40;3.37;;;2.90;;
13421;SDS011;6782;55.904;13.396;2022-10-03T04:26:35;4.33;;;3.40;;
13421;SDS011;6782;55.904;13.396;2022-10-03T04:29:40;5.13;;;3.33;;
13421;SDS011;6782;55.904;13.396;2022-10-03T04:32:40;5.03;;;3.57;;
13421;SDS011;6782;55.904;13.396;2022-10-03T04:35:41;3.77;;;3.33;;
13421;SDS011;6782;55.904;13.396;2022-10-03T04:38:38;4.27;;;3.50;;
13421;SDS011;6782;55.904;13.396;2022-10-03T04:41:31;6.47;;;3.47;;
13421;SDS011;6782;55.904;13.396;2022-10-03T04:44:26;6.17;;;3.20;;
13421;SDS011;6782;55.904;13.396;2022-10-03T04:47:18;4.13;;;3.60;;
13421;SDS011;6782;55.904;13.396;2022-10-03T04:50:12;5.03;;;3.13;;
13421;SDS011;6782;55.904;13.396;2022-10-03T04:53:09;6.83;;;3.67;;
13421;SDS011;6782;55.904;13.396;2022-10-03T04:56:03;4.07;;;3.40;;
13421;SDS011;6782;55.904;13.396;2022-10-03T04:59:00;6.10;;;3.57;;
13421;SDS011;6782;55.904;13.396;2022-10-03T05:01:51;5.17;;;3.67;;
13421;SDS011;6782;55.904;13.396;2022-10-03T05:04:42;9.57;;;3.87;;
13421;SDS011;6782;55.904;13.396;2022-10-03T05:07:32;5.83;;;3.67;;
13421;SDS011;6782;55.904;13.396;2022-10-03T05:10:29;6.33;;;3.73;;
13421;SDS011;6782;55.904;13.396;2022-10-03T05:13:28;6.90;;;3.80;;
13421;SDS011;6782;55.904;13.396;2022-10-03T05:16:22;5.07;;;3.73;;
13421;SDS011;6782;55.904;13.396;2022-10-03T05:19:30;7.53;;;3.77;;
13421;SDS011;6782;55.904;13.396;2022-10-03T05:22:23;4.77;;;3.10;;
13421;SDS011;6782;55.904;13.396;2022-10-03T05:25:15;4.80;;;3.03;;
13421;SDS011;6782;55.904;13.396;2022-10-03T05:28:07;8.53;;;3.70;;
13421;SDS011;6782;55.904;13.396;2022-10-03T05:31:02;7.23;;;3.40;;
13421;SDS011;6782;55.904;13.396;2022-10-03T05:33:53;3.07;;;2.63;;
13421;SDS011;6782;55.904;13.396;2022-10-03T05:36:53;5.37;;;3.73;;
13421;SDS011;6782;55.904;13.396;2022-10-03T05:39:44;5.80;;;3.70;;
13421;SDS011;6782;55.904;13.396;2022-10-03T05:42:43;4.13;;;3.30;;
13421;SDS011;6782;55.904;13.396;2022-10-03T05:45:36;6.30;;;3.43;;
13421;SDS011;6782;55.904;13.396;2022-10-03T05:48:30;5.23;;;3.80;;
13421;SDS011;6782;55.904;13.396;2022-10-03T05:51:29;5.33;;;3.60;;
13421;SDS011;6782;55.904;13.396;2022-10-03T05:54:38;5.07;;;3.60;;
13421;SDS011;6782;55.904;13.396;2022-10-03T05:57:41;5.87;;;4.00;;
13421;SDS011;6782;55.904;13.396;2022-10-03T06:00:38;5.87;;;3.90;;
13421;SDS011;6782;55.904;13.396;2022-10-03T06:03:40;6.43;;;4.20;;
13421;SDS011;6782;55.904;13.396;2022-10-03T06:06:32;10.20;;;4.73;;
13421;SDS011;6782;55.904;13.396;2022-10-03T06:12:32;11.70;;;4.70;;
13421;SDS011;6782;55.904;13.396;2022-10-03T06:34:32;13.67;;;5.70;;
13421;SDS011;6782;55.904;13.396;2022-10-03T06:37:27;14.63;;;5.60;;
13421;SDS011;6782;55.904;13.396;2022-10-03T06:40:27;19.40;;;5.93;;
13421;SDS011;6782;55.904;13.396;2022-10-03T06:43:36;13.33;;;5.10;;
13421;SDS011;6782;55.904;13.396;2022-10-03T06:52:46;14.33;;;4.13;;
13421;SDS011;6782;55.904;13.396;2022-10-03T06:55:53;17.03;;;4.57;;
13421;SDS011;6782;55.904;13.396;2022-10-03T06:58:49;13.20;;;4.13;;
13421;SDS011;6782;55.904;13.396;2022-10-03T07:01:47;11.83;;;3.50;;
13421;SDS011;6782;55.904;13.396;2022-10-03T07:07:57;11.00;;;3.63;;
13421;SDS011;6782;55.904;13.396;2022-10-03T07:10:56;10.47;;;3.17;;
13421;SDS011;6782;55.904;13.396;2022-10-03T07:13:51;15.60;;;3.60;;
13421;SDS011;6782;55.904;13.396;2022-10-03T07:16:50;8.93;;;3.17;;
13421;SDS011;6782;55.904;13.396;2022-10-03T07:19:56;11.00;;;3.03;;
13421;SDS011;6782;55.904;13.396;2022-10-03T07:22:52;9.60;;;2.80;;
13421;SDS011;6782;55.904;13.396;2022-10-03T07:25:58;9.30;;;3.07;;
13421;SDS011;6782;55.904;13.396;2022-10-03T07:29:07;11.17;;;2.90;;
13421;SDS011;6782;55.904;13.396;2022-10-03T07:32:02;9.90;;;2.87;;
13421;SDS011;6782;55.904;13.396;2022-10-03T07:38:06;15.33;;;3.03;;
13421;SDS011;6782;55.904;13.396;2022-10-03T07:41:19;14.80;;;2.97;;
13421;SDS011;6782;55.904;13.396;2022-10-03T07:44:18;10.83;;;3.23;;
13421;SDS011;6782;55.904;13.396;2022-10-03T07:47:19;13.93;;;2.87;;
13421;SDS011;6782;55.904;13.396;2022-10-03T07:53:39;7.87;;;2.20;;
13421;SDS011;6782;55.904;13.396;2022-10-03T07:56:43;8.50;;;2.00;;
13421;SDS011;6782;55.904;13.396;2022-10-03T07:59:47;8.57;;;2.73;;
13421;SDS011;6782;55.904;13.396;2022-10-03T08:02:42;9.83;;;2.30;;
13421;SDS011;6782;55.904;13.396;2022-10-03T08:05:45;5.37;;;2.00;;
13421;SDS011;6782;55.904;13.396;2022-10-03T08:11:54;5.37;;;2.17;;
13421;SDS011;6782;55.904;13.396;2022-10-03T08:14:50;8.43;;;2.47;;
13421;SDS011;6782;55.904;13.396;2022-10-03T08:20:49;7.00;;;2.40;;
13421;SDS011;6782;55.904;13.396;2022-10-03T08:23:42;9.43;;;2.40;;
13421;SDS011;6782;55.904;13.396;2022-10-03T08:26:38;10.13;;;3.00;;
13421;SDS011;6782;55.904;13.396;2022-10-03T08:42:01;10.13;;;2.47;;
13421;SDS011;6782;55.904;13.396;2022-10-03T08:45:00;6.00;;;1.60;;
13421;SDS011;6782;55.904;13.396;2022-10-03T08:48:14;9.70;;;2.13;;
13421;SDS011;6782;55.904;13.396;2022-10-03T08:51:17;8.93;;;1.93;;
13421;SDS011;6782;55.904;13.396;2022-10-03T08:54:17;7.10;;;2.00;;
13421;SDS011;6782;55.904;13.396;2022-10-03T08:57:14;6.00;;;1.93;;
13421;SDS011;6782;55.904;13.396;2022-10-03T09:00:15;8.10;;;2.40;;
13421;SDS011;6782;55.904;13.396;2022-10-03T09:06:17;9.10;;;2.60;;
13421;SDS011;6782;55.904;13.396;2022-10-03T09:09:12;7.03;;;2.10;;
13421;SDS011;6782;55.904;13.396;2022-10-03T09:15:15;9.13;;;2.22;;
13421;SDS011;6782;55.904;13.396;2022-10-03T09:21:34;9.87;;;2.57;;
13421;SDS011;6782;55.904;13.396;2022-10-03T09:24:31;10.40;;;2.30;;
13421;SDS011;6782;55.904;13.396;2022-10-03T09:27:25;4.20;;;1.53;;
13421;SDS011;6782;55.904;13.396;2022-10-03T09:30:22;8.93;;;2.27;;
13421;SDS011;6782;55.904;13.396;2022-10-03T09:45:49;9.40;;;2.22;;
13421;SDS011;6782;55.904;13.396;2022-10-03T09:48:51;11.23;;;2.67;;
13421;SDS011;6782;55.904;13.396;2022-10-03T09:51:46;7.63;;;1.98;;
13421;SDS011;6782;55.904;13.396;2022-10-03T10:13:23;5.80;;;1.98;;
13421;SDS011;6782;55.904;13.396;2022-10-03T10:16:19;8.37;;;2.27;;
13421;SDS011;6782;55.904;13.396;2022-10-03T10:25:28;7.28;;;1.92;;
13421;SDS011;6782;55.904;13.396;2022-10-03T10:28:28;4.17;;;1.70;;
13421;SDS011;6782;55.904;13.396;2022-10-03T10:34:53;4.77;;;2.00;;
13421;SDS011;6782;55.904;13.396;2022-10-03T10:38:04;5.20;;;1.67;;
13421;SDS011;6782;55.904;13.396;2022-10-03T10:54:12;5.32;;;1.70;;
13421;SDS011;6782;55.904;13.396;2022-10-03T10:57:11;4.85;;;1.75;;
13421;SDS011;6782;55.904;13.396;2022-10-03T11:00:19;4.25;;;1.70;;
13421;SDS011;6782;55.904;13.396;2022-10-03T11:09:40;5.13;;;1.42;;
13421;SDS011;6782;55.904;13.396;2022-10-03T11:15:52;5.78;;;1.80;;
13421;SDS011;6782;55.904;13.396;2022-10-03T11:19:17;5.18;;;1.80;;
13421;SDS011;6782;55.904;13.396;2022-10-03T11:25:30;4.07;;;1.35;;
13421;SDS011;6782;55.904;13.396;2022-10-03T11:28:47;5.18;;;1.50;;
13421;SDS011;6782;55.904;13.396;2022-10-03T11:31:50;5.43;;;1.50;;
13421;SDS011;6782;55.904;13.396;2022-10-03T11:35:06;4.40;;;1.70;;
13421;SDS011;6782;55.904;13.396;2022-10-03T11:37:57;5.22;;;1.25;;
13421;SDS011;6782;55.904;13.396;2022-10-03T11:40:54;4.55;;;1.67;;
13421;SDS011;6782;55.904;13.396;2022-10-03T11:46:53;4.00;;;1.33;;
13421;SDS011;6782;55.904;13.396;2022-10-03T11:49:59;3.38;;;1.30;;
13421;SDS011;6782;55.904;13.396;2022-10-03T11:52:56;4.15;;;1.55;;
13421;SDS011;6782;55.904;13.396;2022-10-03T11:55:49;4.90;;;1.58;;
13421;SDS011;6782;55.904;13.396;2022-10-03T11:58:44;4.32;;;1.60;;
13421;SDS011;6782;55.904;13.396;2022-10-03T12:01:38;4.28;;;1.52;;
13421;SDS011;6782;55.904;13.396;2022-10-03T12:04:30;3.65;;;1.50;;
13421;SDS011;6782;55.904;13.396;2022-10-03T12:07:41;4.43;;;1.58;;
13421;SDS011;6782;55.904;13.396;2022-10-03T12:10:49;3.55;;;1.40;;
13421;SDS011;6782;55.904;13.396;2022-10-03T12:13:45;6.95;;;1.60;;
13421;SDS011;6782;55.904;13.396;2022-10-03T12:16:36;4.00;;;1.52;;
13421;SDS011;6782;55.904;13.396;2022-10-03T12:19:30;5.15;;;1.65;;
13421;SDS011;6782;55.904;13.396;2022-10-03T12:22:22;6.13;;;1.63;;
13421;SDS011;6782;55.904;13.396;2022-10-03T12:25:15;4.82;;;1.33;;
13421;SDS011;6782;55.904;13.396;2022-10-03T12:28:07;4.78;;;1.42;;
13421;SDS011;6782;55.904;13.396;2022-10-03T12:31:02;5.50;;;1.50;;
13421;SDS011;6782;55.904;13.396;2022-10-03T12:33:53;7.55;;;1.50;;
13421;SDS011;6782;55.904;13.396;2022-10-03T12:36:43;3.83;;;1.40;;
13421;SDS011;6782;55.904;13.396;2022-10-03T12:39:33;5.40;;;1.25;;
13421;SDS011;6782;55.904;13.396;2022-10-03T12:42:24;6.85;;;1.85;;
13421;SDS011;6782;55.904;13.396;2022-10-03T12:45:16;3.00;;;1.23;;
13421;SDS011;6782;55.904;13.396;2022-10-03T12:54:30;2.95;;;1.40;;
13421;SDS011;6782;55.904;13.396;2022-10-03T13:00:26;3.92;;;1.65;;
13421;SDS011;6782;55.904;13.396;2022-10-03T13:03:20;8.30;;;1.98;;
13421;SDS011;6782;55.904;13.396;2022-10-03T13:06:17;4.00;;;1.40;;
13421;SDS011;6782;55.904;13.396;2022-10-03T13:09:15;4.82;;;1.40;;
13421;SDS011;6782;55.904;13.396;2022-10-03T13:12:10;4.00;;;1.40;;
13421;SDS011;6782;55.904;13.396;2022-10-03T13:21:14;3.65;;;1.52;;
13421;SDS011;6782;55.904;13.396;2022-10-03T13:24:03;5.57;;;1.63;;
13421;SDS011;6782;55.904;13.396;2022-10-03T13:26:53;9.13;;;1.70;;
13421;SDS011;6782;55.904;13.396;2022-10-03T13:29:43;5.20;;;1.63;;
13421;SDS011;6782;55.904;13.396;2022-10-03T13:32:33;5.85;;;1.77;;
13421;SDS011;6782;55.904;13.396;2022-10-03T13:35:24;6.90;;;1.52;;
13421;SDS011;6782;55.904;13.396;2022-10-03T13:41:37;4.72;;;1.83;;
13421;SDS011;6782;55.904;13.396;2022-10-03T13:44:32;4.13;;;1.65;;
13421;SDS011;6782;55.904;13.396;2022-10-03T13:47:27;4.90;;;1.70;;
13421;SDS011;6782;55.904;13.396;2022-10-03T13:50:16;4.72;;;1.77;;
13421;SDS011;6782;55.904;13.396;2022-10-03T13:53:05;6.63;;;1.67;;
13421;SDS011;6782;55.904;13.396;2022-10-03T13:55:54;6.50;;;1.67;;
13421;SDS011;6782;55.904;13.396;2022-10-03T13:58:47;3.45;;;1.58;;
13421;SDS011;6782;55.904;13.396;2022-10-03T14:01:40;6.88;;;1.80;;
13421;SDS011;6782;55.904;13.396;2022-10-03T14:04:38;4.78;;;1.60;;
13421;SDS011;6782;55.904;13.396;2022-10-03T14:07:34;5.13;;;1.80;;
13421;SDS011;6782;55.904;13.396;2022-10-03T14:10:43;5.55;;;1.80;;
13421;SDS011;6782;55.904;13.396;2022-10-03T14:13:37;5.80;;;1.42;;
13421;SDS011;6782;55.904;13.396;2022-10-03T14:16:30;4.95;;;1.30;;
13421;SDS011;6782;55.904;13.396;2022-10-03T14:19:19;4.07;;;1.48;;
13421;SDS011;6782;55.904;13.396;2022-10-03T14:28:15;5.15;;;1.45;;
13421;SDS011;6782;55.904;13.396;2022-10-03T14:31:11;4.22;;;1.65;;
13421;SDS011;6782;55.904;13.396;2022-10-03T14:34:05;6.78;;;1.80;;
13421;SDS011;6782;55.904;13.396;2022-10-03T14:37:00;5.38;;;1.77;;
13421;SDS011;6782;55.904;13.396;2022-10-03T14:40:08;4.25;;;1.40;;
13421;SDS011;6782;55.904;13.396;2022-10-03T14:43:06;3.45;;;1.42;;
13421;SDS011;6782;55.904;13.396;2022-10-03T14:46:07;4.43;;;1.80;;
13421;SDS011;6782;55.904;13.396;2022-10-03T14:48:57;7.43;;;2.15;;
13421;SDS011;6782;55.904;13.396;2022-10-03T14:51:48;4.30;;;1.30;;
13421;SDS011;6782;55.904;13.396;2022-10-03T14:54:42;3.78;;;1.50;;
13421;SDS011;6782;55.904;13.396;2022-10-03T14:57:31;4.75;;;1.45;;
13421;SDS011;6782;55.904;13.396;2022-10-03T15:00:24;3.47;;;1.35;;
13421;SDS011;6782;55.904;13.396;2022-10-03T15:03:21;5.35;;;1.50;;
13421;SDS011;6782;55.904;13.396;2022-10-03T15:06:32;5.53;;;1.65;;
13421;SDS011;6782;55.904;13.396;2022-10-03T15:09:29;4.83;;;1.70;;
13421;SDS011;6782;55.904;13.396;2022-10-03T15:12:20;3.85;;;1.25;;
13421;SDS011;6782;55.904;13.396;2022-10-03T15:15:14;4.37;;;1.43;;
13421;SDS011;6782;55.904;13.396;2022-10-03T15:18:06;4.83;;;1.53;;
13421;SDS011;6782;55.904;13.396;2022-10-03T15:21:01;3.30;;;1.30;;
13421;SDS011;6782;55.904;13.396;2022-10-03T15:23:52;3.00;;;1.30;;
13421;SDS011;6782;55.904;13.396;2022-10-03T15:26:52;9.73;;;2.40;;
13421;SDS011;6782;55.904;13.396;2022-10-03T15:29:44;8.10;;;1.60;;
13421;SDS011;6782;55.904;13.396;2022-10-03T15:32:37;4.50;;;1.50;;
13421;SDS011;6782;55.904;13.396;2022-10-03T15:35:29;6.27;;;1.90;;
13421;SDS011;6782;55.904;13.396;2022-10-03T15:38:19;7.10;;;1.70;;
13421;SDS011;6782;55.904;13.396;2022-10-03T15:41:11;6.70;;;2.17;;
13421;SDS011;6782;55.904;13.396;2022-10-03T15:44:02;8.40;;;1.53;;
13421;SDS011;6782;55.904;13.396;2022-10-03T15:46:59;5.07;;;2.03;;
13421;SDS011;6782;55.904;13.396;2022-10-03T15:49:52;7.50;;;1.80;;
13421;SDS011;6782;55.904;13.396;2022-10-03T15:52:46;8.93;;;1.90;;
13421;SDS011;6782;55.904;13.396;2022-10-03T15:55:39;7.23;;;1.97;;
13421;SDS011;6782;55.904;13.396;2022-10-03T15:58:31;5.90;;;1.57;;
13421;SDS011;6782;55.904;13.396;2022-10-03T16:01:21;6.97;;;1.70;;
13421;SDS011;6782;55.904;13.396;2022-10-03T16:04:13;9.80;;;1.90;;
13421;SDS011;6782;55.904;13.396;2022-10-03T16:07:06;8.60;;;2.03;;
13421;SDS011;6782;55.904;13.396;2022-10-03T16:10:06;6.10;;;1.83;;
13421;SDS011;6782;55.904;13.396;2022-10-03T16:13:05;5.17;;;1.80;;
13421;SDS011;6782;55.904;13.396;2022-10-03T16:16:08;7.13;;;1.80;;
13421;SDS011;6782;55.904;13.396;2022-10-03T16:19:06;7.40;;;2.00;;
13421;SDS011;6782;55.904;13.396;2022-10-03T16:22:12;6.80;;;1.60;;
13421;SDS011;6782;55.904;13.396;2022-10-03T16:25:07;4.87;;;1.80;;
13421;SDS011;6782;55.904;13.396;2022-10-03T16:28:01;7.00;;;1.87;;
13421;SDS011;6782;55.904;13.396;2022-10-03T16:30:51;9.00;;;1.93;;
13421;SDS011;6782;55.904;13.396;2022-10-03T16:33:46;9.83;;;1.90;;
13421;SDS011;6782;55.904;13.396;2022-10-03T16:36:42;9.50;;;1.93;;
13421;SDS011;6782;55.904;13.396;2022-10-03T16:39:32;7.13;;;2.17;;
13421;SDS011;6782;55.904;13.396;2022-10-03T16:42:23;6.33;;;1.73;;
13421;SDS011;6782;55.904;13.396;2022-10-03T16:45:17;6.73;;;1.70;;
13421;SDS011;6782;55.904;13.396;2022-10-03T16:48:10;6.50;;;1.93;;
13421;SDS011;6782;55.904;13.396;2022-10-03T16:51:20;5.03;;;1.63;;
13421;SDS011;6782;55.904;13.396;2022-10-03T16:54:13;5.13;;;1.70;;
13421;SDS011;6782;55.904;13.396;2022-10-03T16:57:04;6.10;;;1.97;;
13421;SDS011;6782;55.904;13.396;2022-10-03T17:00:00;6.30;;;2.00;;
13421;SDS011;6782;55.904;13.396;2022-10-03T17:02:52;4.87;;;1.50;;
13421;SDS011;6782;55.904;13.396;2022-10-03T17:05:42;7.93;;;1.83;;
13421;SDS011;6782;55.904;13.396;2022-10-03T17:08:34;5.10;;;1.60;;
13421;SDS011;6782;55.904;13.396;2022-10-03T17:11:33;8.97;;;2.00;;
13421;SDS011;6782;55.904;13.396;2022-10-03T17:14:24;5.60;;;1.53;;
13421;SDS011;6782;55.904;13.396;2022-10-03T17:17:23;6.17;;;1.93;;
13421;SDS011;6782;55.904;13.396;2022-10-03T17:20:17;7.90;;;2.10;;
13421;SDS011;6782;55.904;13.396;2022-10-03T17:23:17;7.33;;;2.00;;
13421;SDS011;6782;55.904;13.396;2022-10-03T17:26:13;6.57;;;1.77;;
13421;SDS011;6782;55.904;13.396;2022-10-03T17:29:09;7.77;;;2.03;;
13421;SDS011;6782;55.904;13.396;2022-10-03T17:32:10;5.53;;;1.50;;
13421;SDS011;6782;55.904;13.396;2022-10-03T17:35:09;5.30;;;1.80;;
13421;SDS011;6782;55.904;13.396;2022-10-03T17:38:05;9.23;;;2.27;;
13421;SDS011;6782;55.904;13.396;2022-10-03T17:41:11;4.83;;;1.80;;
13421;SDS011;6782;55.904;13.396;2022-10-03T17:44:07;5.83;;;1.67;;
13421;SDS011;6782;55.904;13.396;2022-10-03T17:47:05;5.87;;;1.50;;
13421;SDS011;6782;55.904;13.396;2022-10-03T17:49:59;5.43;;;1.50;;
13421;SDS011;6782;55.904;13.396;2022-10-03T17:52:54;6.10;;;1.70;;
13421;SDS011;6782;55.904;13.396;2022-10-03T17:55:41;7.30;;;1.87;;
13421;SDS011;6782;55.904;13.396;2022-10-03T17:58:31;7.60;;;1.73;;
13421;SDS011;6782;55.904;13.396;2022-10-03T18:01:19;6.63;;;1.87;;
13421;SDS011;6782;55.904;13.396;2022-10-03T18:04:14;7.60;;;1.83;;
13421;SDS011;6782;55.904;13.396;2022-10-03T18:07:05;5.53;;;1.60;;
13421;SDS011;6782;55.904;13.396;2022-10-03T18:10:00;7.40;;;2.00;;
13421;SDS011;6782;55.904;13.396;2022-10-03T18:12:50;7.00;;;1.83;;
13421;SDS011;6782;55.904;13.396;2022-10-03T18:15:45;11.33;;;1.90;;
13421;SDS011;6782;55.904;13.396;2022-10-03T18:18:54;9.37;;;2.10;;
13421;SDS011;6782;55.904;13.396;2022-10-03T18:22:07;6.57;;;1.87;;
13421;SDS011;6782;55.904;13.396;2022-10-03T18:25:11;6.30;;;1.90;;
13421;SDS011;6782;55.904;13.396;2022-10-03T18:28:18;6.90;;;2.27;;
13421;SDS011;6782;55.904;13.396;2022-10-03T18:31:09;7.50;;;2.10;;
13421;SDS011;6782;55.904;13.396;2022-10-03T18:34:04;8.83;;;2.00;;
13421;SDS011;6782;55.904;13.396;2022-10-03T18:36:54;7.73;;;2.03;;
13421;SDS011;6782;55.904;13.396;2022-10-03T18:39:43;10.53;;;2.20;;
13421;SDS011;6782;55.904;13.396;2022-10-03T18:42:33;10.13;;;1.77;;
13421;SDS011;6782;55.904;13.396;2022-10-03T18:45:22;6.73;;;1.60;;
13421;SDS011;6782;55.904;13.396;2022-10-03T18:48:16;10.93;;;2.30;;
13421;SDS011;6782;55.904;13.396;2022-10-03T18:51:11;9.30;;;2.00;;
13421;SDS011;6782;55.904;13.396;2022-10-03T18:54:03;7.70;;;1.67;;
13421;SDS011;6782;55.904;13.396;2022-10-03T18:57:05;8.07;;;2.40;;
13421;SDS011;6782;55.904;13.396;2022-10-03T19:00:00;7.17;;;1.80;;
13421;SDS011;6782;55.904;13.396;2022-10-03T19:02:52;6.43;;;1.97;;
13421;SDS011;6782;55.904;13.396;2022-10-03T19:05:44;6.97;;;2.20;;
13421;SDS011;6782;55.904;13.396;2022-10-03T19:08:36;8.23;;;1.70;;
13421;SDS011;6782;55.904;13.396;2022-10-03T19:11:28;7.57;;;2.23;;
13421;SDS011;6782;55.904;13.396;2022-10-03T19:14:22;13.30;;;2.73;;
13421;SDS011;6782;55.904;13.396;2022-10-03T19:17:19;7.97;;;1.77;;
13421;SDS011;6782;55.904;13.396;2022-10-03T19:20:15;8.63;;;2.10;;
13421;SDS011;6782;55.904;13.396;2022-10-03T19:23:10;6.63;;;2.37;;
13421;SDS011;6782;55.904;13.396;2022-10-03T19:26:00;7.57;;;2.00;;
13421;SDS011;6782;55.904;13.396;2022-10-03T19:28:53;5.23;;;1.93;;
13421;SDS011;6782;55.904;13.396;2022-10-03T19:31:43;9.23;;;2.27;;
13421;SDS011;6782;55.904;13.396;2022-10-03T19:34:41;8.90;;;2.80;;
13421;SDS011;6782;55.904;13.396;2022-10-03T19:37:34;9.07;;;2.57;;
13421;SDS011;6782;55.904;13.396;2022-10-03T19:40:29;9.73;;;2.30;;
13421;SDS011;6782;55.904;13.396;2022-10-03T19:44:21;7.07;;;1.97;;
13421;SDS011;6782;55.904;13.396;2022-10-03T19:48:09;6.87;;;1.80;;
13421;SDS011;6782;55.904;13.396;2022-10-03T19:51:07;9.83;;;2.07;;
13421;SDS011;6782;55.904;13.396;2022-10-03T19:53:56;10.30;;;2.10;;
13421;SDS011;6782;55.904;13.396;2022-10-03T19:56:44;8.17;;;1.97;;
13421;SDS011;6782;55.904;13.396;2022-10-03T19:59:35;7.37;;;2.50;;
13421;SDS011;6782;55.904;13.396;2022-10-03T20:02:29;6.73;;;2.03;;
13421;SDS011;6782;55.904;13.396;2022-10-03T20:05:18;8.50;;;2.40;;
13421;SDS011;6782;55.904;13.396;2022-10-03T20:08:14;9.73;;;2.27;;
13421;SDS011;6782;55.904;13.396;2022-10-03T20:11:25;8.17;;;2.17;;
13421;SDS011;6782;55.904;13.396;2022-10-03T20:14:24;5.30;;;1.77;;
13421;SDS011;6782;55.904;13.396;2022-10-03T20:17:13;6.10;;;2.17;;
13421;SDS011;6782;55.904;13.396;2022-10-03T20:20:05;6.50;;;2.00;;